Time;durP1;ratioP1;P1;durP2;ratioP2;P2;SDS_P1;SDS_P2;PMS_P1;PMS_P2;Temp;Humidity;BMP_temperature;BMP_pressure;BME280_temperature;BME280_humidity;BME280_pressure;Samples;Min_cycle;Max_cycle;Signal;HPM_P1;HPM_P2
2022/10/18 05:58:14;;;;;;;26.02;11.75;;;;;;;9.24;100.00;100012.50;4495032;31;131015;-72
2022/10/18 06:00:42;;;;;;;26.87;13.73;;;;;;;9.32;100.00;100013.81;4490780;31;20121;-72
2022/10/18 06:03:09;;;;;;;20.50;11.57;;;;;;;9.49;100.00;100007.47;4509707;31;20493;-72
2022/10/18 06:05:36;;;;;;;39.25;13.00;;;;;;;9.66;100.00;100008.97;4508284;31;20084;-73
2022/10/18 06:08:09;;;;;;;20.73;11.63;;;;;;;9.79;100.00;100007.25;4506457;31;20107;-73
2022/10/18 06:10:39;;;;;;;38.53;13.23;;;;;;;9.94;100.00;100008.00;4507815;31;20160;-73
2022/10/18 06:13:06;;;;;;;22.73;12.63;;;;;;;10.14;100.00;100011.91;4508770;31;20127;-72
2022/10/18 06:15:33;;;;;;;26.70;12.27;;;;;;;10.26;100.00;100010.22;4506461;31;20477;-72
2022/10/18 06:18:00;;;;;;;29.73;12.63;;;;;;;10.37;100.00;100020.00;4505614;31;20143;-73
2022/10/18 06:20:27;;;;;;;24.65;12.80;;;;;;;10.51;100.00;100029.53;4504259;31;20096;-74
2022/10/18 06:22:54;;;;;;;26.48;12.80;;;;;;;10.63;100.00;100013.00;4503236;31;20095;-73
2022/10/18 06:25:21;;;;;;;21.40;12.05;;;;;;;10.79;100.00;100021.44;4501780;31;20122;-74
2022/10/18 06:27:48;;;;;;;20.30;11.23;;;;;;;10.90;100.00;100025.09;4506242;31;20130;-72
2022/10/18 06:30:16;;;;;;;22.15;11.40;;;;;;;10.97;100.00;100031.59;4501577;31;20160;-73
2022/10/18 06:32:43;;;;;;;17.35;10.80;;;;;;;11.10;100.00;100027.16;4505139;31;20107;-73
2022/10/18 06:35:10;;;;;;;21.02;12.73;;;;;;;11.21;100.00;100029.00;4505389;31;20103;-72
2022/10/18 06:37:37;;;;;;;29.52;12.65;;;;;;;11.35;100.00;100030.63;4501137;31;21074;-71
2022/10/18 06:40:05;;;;;;;20.77;12.43;;;;;;;11.47;100.00;100037.59;4507907;31;20159;-72
2022/10/18 06:42:32;;;;;;;25.55;12.85;;;;;;;11.63;100.00;100034.72;4503110;31;20096;-74
2022/10/18 06:45:00;;;;;;;21.90;13.10;;;;;;;11.79;100.00;100031.78;4502840;31;20416;-73
2022/10/18 06:47:27;;;;;;;25.05;12.45;;;;;;;11.89;100.00;100039.81;4499966;31;20088;-74
2022/10/18 06:49:54;;;;;;;21.37;10.55;;;;;;;12.09;100.00;100030.47;4509091;31;20498;-72
2022/10/18 06:52:24;;;;;;;20.17;10.60;;;;;;;12.15;97.46;100037.06;4510600;31;20111;-73
2022/10/18 06:54:52;;;;;;;20.50;10.38;;;;;;;12.22;97.12;100031.22;4508267;31;20132;-73
2022/10/18 06:57:20;;;;;;;16.40;10.55;;;;;;;12.23;95.57;100042.56;4510414;31;20092;-71
2022/10/18 06:59:48;;;;;;;18.40;10.20;;;;;;;12.23;93.08;100043.41;4495933;31;20122;-71
2022/10/18 07:02:16;;;;;;;17.95;9.75;;;;;;;12.36;91.76;100040.69;4495447;31;20116;-71
2022/10/18 07:04:43;;;;;;;17.35;8.55;;;;;;;12.65;89.99;100042.84;4510266;31;20642;-72
2022/10/18 07:07:10;;;;;;;15.38;9.38;;;;;;;12.69;91.26;100041.66;4507607;31;20566;-72
2022/10/18 07:09:37;;;;;;;23.50;10.45;;;;;;;12.83;90.22;100042.38;4484235;32;20131;-71
2022/10/18 07:12:05;;;;;;;20.80;10.23;;;;;;;12.96;91.12;100043.94;4483606;31;20118;-72
2022/10/18 07:14:32;;;;;;;24.90;11.40;;;;;;;12.97;88.49;100039.50;4483993;31;20093;-71
2022/10/18 07:16:59;;;;;;;28.40;10.75;;;;;;;12.86;89.83;100037.72;4484696;31;20156;-72
2022/10/18 07:19:26;;;;;;;22.65;10.95;;;;;;;13.01;92.84;100037.47;4485119;31;20496;-72
2022/10/18 07:21:53;;;;;;;18.92;10.27;;;;;;;13.03;92.45;100038.19;4485460;31;20108;-72
2022/10/18 07:24:20;;;;;;;22.58;10.50;;;;;;;13.10;91.98;100032.31;4485554;31;20111;-72
2022/10/18 07:26:47;;;;;;;16.60;9.25;;;;;;;13.21;94.05;100034.06;4485314;32;20424;-73
2022/10/18 07:29:14;;;;;;;20.20;10.63;;;;;;;13.22;86.36;100029.66;4488156;31;20160;-73
2022/10/18 07:31:42;;;;;;;20.30;9.73;;;;;;;13.29;89.48;100022.94;4501155;31;20096;-74
2022/10/18 07:34:13;;;;;;;20.12;10.32;;;;;;;13.30;86.50;100025.44;4500857;31;20129;-74
2022/10/18 07:36:40;;;;;;;20.55;10.57;;;;;;;13.18;85.81;100023.81;4500276;31;20100;-72
2022/10/18 07:39:09;;;;;;;22.98;11.52;;;;;;;13.20;87.36;100024.53;4501449;31;20108;-73
2022/10/18 07:41:36;;;;;;;21.05;11.00;;;;;;;13.26;89.35;100024.03;4501349;31;20519;-75
2022/10/18 07:44:03;;;;;;;22.05;11.32;;;;;;;13.27;86.96;100033.59;4501629;31;20155;-74
2022/10/18 07:46:30;;;;;;;27.15;11.73;;;;;;;13.20;84.57;100035.06;4501139;31;20100;-74
2022/10/18 07:48:58;;;;;;;20.50;11.52;;;;;;;13.20;88.24;100037.69;4501292;31;20578;-74
2022/10/18 07:51:26;;;;;;;26.40;11.70;;;;;;;13.23;84.96;100036.59;4501195;31;20168;-76
2022/10/18 07:53:54;;;;;;;24.77;12.60;;;;;;;13.34;84.92;100038.38;4500974;31;20183;-73
2022/10/18 07:56:21;;;;;;;32.28;12.95;;;;;;;13.38;85.60;100034.56;4500247;31;20101;-73
2022/10/18 07:58:51;;;;;;;19.98;12.55;;;;;;;13.23;85.94;100029.56;4501111;31;20158;-74
2022/10/18 08:01:19;;;;;;;24.55;11.95;;;;;;;13.20;84.62;100032.44;4501291;31;20157;-73
2022/10/18 08:03:47;;;;;;;25.62;11.48;;;;;;;13.22;86.77;100029.66;4492626;31;20414;-71
2022/10/18 08:06:17;;;;;;;22.52;10.60;;;;;;;13.45;85.28;100019.94;4484884;31;20097;-72
2022/10/18 08:08:44;;;;;;;19.73;10.82;;;;;;;13.58;81.85;100020.63;4498917;31;20100;-71
2022/10/18 08:11:18;;;;;;;20.88;11.50;;;;;;;13.61;81.87;100015.09;4501444;31;20175;-71
2022/10/18 08:13:45;;;;;;;25.60;10.60;;;;;;;13.46;82.50;100017.19;4501480;31;20093;-71
2022/10/18 08:16:16;;;;;;;16.67;10.85;;;;;;;13.43;84.94;100009.53;4500782;31;20092;-71
2022/10/18 08:18:43;;;;;;;19.45;9.77;;;;;;;13.51;82.74;100006.28;4501204;31;20103;-72
2022/10/18 08:21:11;;;;;;;15.07;9.20;;;;;;;13.57;79.89;99997.88;4500074;31;20176;-71
2022/10/18 08:23:39;;;;;;;20.33;10.35;;;;;;;13.61;78.83;100003.72;4501118;31;20189;-71
2022/10/18 08:26:08;;;;;;;17.52;10.07;;;;;;;13.84;81.18;100004.47;4500510;31;20115;-72
2022/10/18 08:28:35;;;;;;;20.02;9.55;;;;;;;13.93;77.68;99995.78;4495550;31;20640;-71
2022/10/18 08:31:09;;;;;;;15.73;9.57;;;;;;;14.13;79.13;99998.56;4496531;31;20091;-72
2022/10/18 08:33:38;;;;;;;18.35;10.25;;;;;;;14.20;78.50;99994.41;4492596;31;20100;-72
2022/10/18 08:36:09;;;;;;;19.23;9.20;;;;;;;14.20;75.72;99989.12;4492666;31;20476;-72
2022/10/18 08:38:38;;;;;;;19.60;9.82;;;;;;;14.40;77.04;99998.00;4500830;31;20091;-72
2022/10/18 08:41:38;;;;;;;16.95;9.38;;;;;;;14.44;72.86;99991.47;4499289;31;20122;-72
2022/10/18 08:44:18;;;;;;;25.35;9.45;;;;;;;14.45;75.25;99992.34;4483142;32;20180;-72
2022/10/18 08:46:51;;;;;;;20.02;9.30;;;;;;;14.52;75.14;99990.84;4484350;32;20150;-72
2022/10/18 08:49:51;;;;;;;15.30;8.77;;;;;;;14.54;72.21;99981.00;4484329;32;20097;-72
2022/10/18 08:52:30;;;;;;;14.55;8.20;;;;;;;14.66;71.36;99979.94;4483060;32;20450;-72
2022/10/18 08:55:03;;;;;;;18.70;8.05;;;;;;;14.84;71.91;99974.06;4483378;32;20084;-72
2022/10/18 08:57:31;;;;;;;13.57;7.60;;;;;;;14.78;70.84;99969.31;4483731;32;20180;-72
2022/10/18 09:00:01;;;;;;;13.60;8.02;;;;;;;14.86;70.83;99970.28;4484928;31;20085;-72
2022/10/18 09:02:45;;;;;;;12.85;7.50;;;;;;;15.00;69.42;99966.41;4485099;32;20583;-72
2022/10/18 09:05:28;;;;;;;21.17;8.43;;;;;;;15.16;70.31;99973.00;4484579;31;20092;-72
2022/10/18 09:08:21;;;;;;;12.52;7.95;;;;;;;15.18;68.33;99963.94;4491651;31;20126;-72
2022/10/18 09:11:25;;;;;;;15.98;7.20;;;;;;;15.25;70.57;99965.06;4492729;31;20108;-72
2022/10/18 09:13:59;;;;;;;15.05;7.90;;;;;;;15.30;67.70;99959.38;4487067;31;20151;-72
2022/10/18 09:16:33;;;;;;;18.25;8.30;;;;;;;15.43;67.63;99959.94;4500305;31;20080;-72
2022/10/18 09:19:17;;;;;;;13.57;7.70;;;;;;;15.47;66.29;99957.84;4500703;31;20104;-72
2022/10/18 09:22:12;;;;;;;14.57;7.53;;;;;;;15.40;68.56;99960.22;4500694;31;20100;-72
2022/10/18 09:25:08;;;;;;;12.35;5.85;;;;;;;15.63;67.67;99946.72;4499078;31;20151;-72
2022/10/18 09:28:02;;;;;;;14.63;7.22;;;;;;;15.64;64.59;99950.19;4499707;31;20096;-72
2022/10/18 09:31:12;;;;;;;21.08;7.82;;;;;;;15.94;68.03;99943.91;4500206;31;20465;-69
2022/10/18 09:34:03;;;;;;;11.98;7.10;;;;;;;15.99;67.38;99939.06;4500249;31;20107;-69
2022/10/18 09:36:50;;;;;;;12.40;7.60;;;;;;;16.14;67.68;99934.16;4496193;31;20100;-69
2022/10/18 09:39:38;;;;;;;17.62;7.07;;;;;;;16.04;66.83;99931.50;4494747;31;20359;-69
2022/10/18 09:42:33;;;;;;;13.98;7.15;;;;;;;16.04;66.12;99926.22;4500704;31;20092;-69
2022/10/18 09:45:30;;;;;;;11.48;7.12;;;;;;;15.78;67.78;99932.13;4499384;31;20155;-70
2022/10/18 09:48:28;;;;;;;20.27;7.82;;;;;;;15.98;66.53;99926.81;4489007;31;20091;-70
2022/10/18 09:51:21;;;;;;;14.80;7.05;;;;;;;15.98;64.83;99921.53;4499217;31;20118;-69
2022/10/18 09:54:12;;;;;;;9.10;6.15;;;;;;;16.14;69.48;99924.41;4500270;31;20099;-69
2022/10/18 09:57:07;;;;;;;12.05;6.43;;;;;;;15.98;68.87;99913.59;4498048;31;20117;-69
2022/10/18 09:59:53;;;;;;;20.33;7.05;;;;;;;16.11;64.04;99915.94;4486290;31;20103;-69
2022/10/18 10:02:41;;;;;;;17.02;6.37;;;;;;;15.93;65.55;99911.38;4490573;31;20160;-67
2022/10/18 10:05:28;;;;;;;14.65;6.97;;;;;;;16.11;65.93;99914.09;4490082;31;20155;-69
2022/10/18 10:08:14;;;;;;;12.27;6.75;;;;;;;16.25;65.35;99906.69;4490447;31;20168;-72
2022/10/18 10:11:02;;;;;;;13.62;6.87;;;;;;;16.34;65.96;99907.63;4491989;31;20100;-71
2022/10/18 10:13:49;;;;;;;10.70;7.35;;;;;;;16.29;65.97;99900.97;4499594;31;20425;-72
2022/10/18 10:16:54;;;;;;;19.15;6.05;;;;;;;16.21;67.07;99884.97;4498820;31;20530;-71
2022/10/18 10:20:02;;;;;;;10.38;5.93;;;;;;;16.22;65.14;99885.81;4500096;31;20103;-72
2022/10/18 10:22:50;;;;;;;9.98;6.07;;;;;;;16.13;63.39;99888.34;4498851;31;20088;-71
2022/10/18 10:25:37;;;;;;;12.88;6.43;;;;;;;16.26;63.33;99880.09;4499429;31;20092;-73
2022/10/18 10:28:30;;;;;;;10.90;5.85;;;;;;;16.20;63.46;99880.69;4499769;31;20141;-71
2022/10/18 10:31:23;;;;;;;24.08;6.60;;;;;;;16.48;64.01;99884.16;4489513;31;20491;-72
2022/10/18 10:34:13;;;;;;;9.30;6.22;;;;;;;16.54;63.47;99881.91;4483648;31;20168;-72
2022/10/18 10:37:01;;;;;;;43.60;7.35;;;;;;;16.73;63.71;99875.66;4483484;32;20096;-73
2022/10/18 10:40:10;;;;;;;15.18;6.72;;;;;;;16.95;66.22;99867.28;4484102;31;20156;-72
2022/10/18 10:43:08;;;;;;;11.63;5.57;;;;;;;16.89;61.59;99859.13;4486884;31;20122;-71
2022/10/18 10:46:17;;;;;;;12.50;6.80;;;;;;;16.76;61.64;99857.66;4496062;31;20108;-72
2022/10/18 10:49:04;;;;;;;14.52;5.78;;;;;;;16.80;61.70;99845.78;4484246;31;20617;-73
2022/10/18 10:52:20;;;;;;;8.48;5.72;;;;;;;16.75;61.65;99850.72;4488663;31;20100;-71
2022/10/18 10:55:27;;;;;;;8.88;5.03;;;;;;;16.71;64.12;99851.16;4495651;31;20108;-72
2022/10/18 10:58:26;;;;;;;11.15;5.37;;;;;;;16.88;62.08;99849.53;4484851;31;20133;-73
2022/10/18 11:01:24;;;;;;;11.82;6.03;;;;;;;17.00;64.85;99843.00;4490280;31;20114;-73
2022/10/18 11:04:27;;;;;;;12.27;5.62;;;;;;;17.03;60.40;99838.28;4491063;31;20467;-72
2022/10/18 11:07:29;;;;;;;8.32;4.95;;;;;;;16.99;64.40;99838.72;4488861;31;20097;-72
2022/10/18 11:10:18;;;;;;;9.43;5.62;;;;;;;16.98;59.90;99832.59;4489850;31;20140;-73
2022/10/18 11:13:48;;;;;;;9.55;4.90;;;;;;;16.83;62.76;99826.94;4496491;31;20622;-71
2022/10/18 11:17:04;;;;;;;6.75;4.10;;;;;;;16.90;61.24;99829.06;4485641;31;20096;-72
2022/10/18 11:20:08;;;;;;;6.75;4.62;;;;;;;17.17;59.12;99821.00;4475467;31;20148;-72
2022/10/18 11:23:01;;;;;;;25.35;5.68;;;;;;;17.12;61.42;99820.63;4489923;31;20104;-72
2022/10/18 11:25:40;;;;;;;15.98;4.65;;;;;;;17.17;59.09;99818.34;4489333;31;20103;-72
2022/10/18 11:28:17;;;;;;;15.07;4.95;;;;;;;17.40;59.26;99815.19;4492392;31;20160;-72
2022/10/18 11:30:50;;;;;;;10.25;4.30;;;;;;;17.53;58.24;99810.31;4488383;31;20096;-72
2022/10/18 11:33:22;;;;;;;31.10;6.03;;;;;;;17.53;59.04;99806.81;4487229;31;20689;-72
2022/10/18 11:36:17;;;;;;;6.95;4.70;;;;;;;17.75;60.96;99800.16;4486181;31;20118;-71
2022/10/18 11:39:07;;;;;;;6.82;4.62;;;;;;;17.61;55.23;99792.78;4489718;31;20512;-71
2022/10/18 11:41:41;;;;;;;9.63;4.32;;;;;;;17.75;55.35;99786.91;4422264;32;20101;-71
2022/10/18 11:44:31;;;;;;;10.82;4.00;;;;;;;17.77;55.47;99790.22;4414157;32;20623;-71
2022/10/18 11:47:35;;;;;;;7.68;4.22;;;;;;;17.79;56.00;99788.25;4421801;32;20138;-71
2022/10/18 11:50:18;;;;;;;7.37;4.32;;;;;;;17.49;58.08;99779.00;4387466;32;20157;-71
2022/10/18 11:52:58;;;;;;;12.55;4.90;;;;;;;17.56;57.80;99780.87;4383282;32;20107;-71
2022/10/18 11:56:05;;;;;;;9.25;4.57;;;;;;;17.77;57.56;99789.41;4369995;32;20142;-72
2022/10/18 11:58:49;;;;;;;9.40;4.47;;;;;;;17.59;55.48;99770.94;4390198;32;20106;-72
2022/10/18 12:01:29;;;;;;;8.57;3.87;;;;;;;17.78;57.03;99770.69;4389755;32;20449;-70
2022/10/18 12:04:08;;;;;;;7.80;4.03;;;;;;;17.77;57.23;99768.19;4363231;32;20114;-70
2022/10/18 12:06:40;;;;;;;13.40;5.00;;;;;;;17.85;55.42;99768.22;4388126;32;20102;-69
2022/10/18 12:09:40;;;;;;;8.90;4.97;;;;;;;18.02;57.70;99766.50;4374828;32;20190;-69
2022/10/18 12:12:18;;;;;;;11.27;4.45;;;;;;;18.11;56.67;99760.25;4386736;32;20165;-69
2022/10/18 12:14:50;;;;;;;19.70;4.93;;;;;;;17.87;57.22;99753.00;4388078;32;20136;-69
2022/10/18 12:17:20;;;;;;;5.55;4.12;;;;;;;17.88;58.71;99744.03;4374158;32;20094;-69
2022/10/18 12:20:17;;;;;;;11.43;5.65;;;;;;;17.77;58.75;99750.47;4431844;32;20546;-70
2022/10/18 12:23:01;;;;;;;10.30;4.87;;;;;;;17.70;59.19;99746.81;4425299;32;20097;-69
2022/10/18 12:25:33;;;;;;;20.25;4.95;;;;;;;17.85;58.93;99741.72;4445369;31;20150;-69
2022/10/18 12:28:30;;;;;;;10.50;4.75;;;;;;;17.96;56.21;99735.34;4486230;31;20096;-69
2022/10/18 12:31:06;;;;;;;17.37;5.10;;;;;;;17.88;58.61;99733.44;4491700;31;20088;-70
2022/10/18 12:33:39;;;;;;;13.77;4.82;;;;;;;17.82;57.60;99728.78;4498102;31;20092;-70
2022/10/18 12:36:27;;;;;;;7.72;4.35;;;;;;;17.86;58.67;99725.66;4497221;31;20126;-70
2022/10/18 12:39:00;;;;;;;12.55;4.30;;;;;;;17.85;57.65;99724.00;4484736;31;20122;-71
2022/10/18 12:41:30;;;;;;;8.73;4.25;;;;;;;17.99;58.11;99713.81;4489584;31;20209;-71
2022/10/18 12:44:32;;;;;;;12.30;4.45;;;;;;;18.20;56.95;99716.00;4495036;31;20104;-70
2022/10/18 12:47:02;;;;;;;11.65;4.95;;;;;;;18.13;57.03;99715.81;4484065;31;20100;-70
2022/10/18 12:49:34;;;;;;;12.40;4.68;;;;;;;17.93;57.66;99712.63;4484585;31;20091;-70
2022/10/18 12:52:24;;;;;;;35.30;6.05;;;;;;;18.14;58.20;99704.22;4485548;31;20441;-70
2022/10/18 12:55:01;;;;;;;14.87;4.87;;;;;;;18.01;56.13;99701.22;4492378;31;20101;-70
2022/10/18 12:57:50;;;;;;;12.00;5.40;;;;;;;17.91;56.58;99688.94;4484832;31;20860;-70
2022/10/18 13:00:40;;;;;;;7.82;4.50;;;;;;;17.89;56.92;99682.94;4490928;31;20980;-70
2022/10/18 13:03:10;;;;;;;9.07;4.70;;;;;;;18.19;57.25;99683.34;4485959;31;20101;-70
2022/10/18 13:05:46;;;;;;;9.45;4.93;;;;;;;18.09;57.56;99680.00;4487399;31;20453;-70
2022/10/18 13:08:32;;;;;;;18.12;5.10;;;;;;;18.33;57.78;99678.38;4489399;31;20108;-72
2022/10/18 13:11:09;;;;;;;8.95;4.10;;;;;;;18.02;56.95;99677.19;4490536;31;20107;-70
2022/10/18 13:14:00;;;;;;;12.85;4.75;;;;;;;17.97;55.70;99678.66;4495928;31;20434;-71
2022/10/18 13:16:35;;;;;;;38.47;6.95;;;;;;;18.20;56.21;99679.69;4490403;31;20088;-71
2022/10/18 13:19:18;;;;;;;11.25;4.22;;;;;;;18.46;56.05;99673.41;4492554;31;20118;-75
2022/10/18 13:21:47;;;;;;;9.50;4.45;;;;;;;18.68;55.99;99671.91;4491685;31;20096;-74
2022/10/18 13:24:36;;;;;;;6.05;3.97;;;;;;;18.66;55.79;99673.91;4491894;31;20161;-74
2022/10/18 13:27:06;;;;;;;15.43;4.20;;;;;;;18.46;54.52;99668.09;4492898;31;20171;-74
2022/10/18 13:30:14;;;;;;;14.48;4.43;;;;;;;18.60;56.15;99663.94;4492302;31;20095;-74
2022/10/18 13:33:02;;;;;;;9.38;4.68;;;;;;;18.87;54.50;99662.78;4492218;31;20362;-74
2022/10/18 13:35:53;;;;;;;15.23;4.80;;;;;;;18.57;54.97;99662.44;4484826;31;20119;-73
2022/10/18 13:38:35;;;;;;;27.67;4.87;;;;;;;18.36;54.60;99657.66;4497044;31;20104;-73
2022/10/18 13:41:04;;;;;;;6.78;4.32;;;;;;;18.65;55.46;99655.50;4490272;31;20112;-74
2022/10/18 13:44:10;;;;;;;10.77;4.90;;;;;;;18.52;55.86;99656.00;4495900;31;20536;-74
2022/10/18 13:46:37;;;;;;;8.23;3.87;;;;;;;18.61;56.16;99669.09;4490579;31;20122;-75
2022/10/18 13:49:38;;;;;;;6.78;3.58;;;;;;;18.86;55.44;99653.16;4489869;31;20453;-75
2022/10/18 13:52:39;;;;;;;6.85;4.07;;;;;;;19.04;54.66;99652.13;4490081;31;20104;-75
2022/10/18 13:55:37;;;;;;;9.15;3.70;;;;;;;19.12;53.20;99650.28;4489190;31;20121;-74
2022/10/18 13:58:21;;;;;;;19.20;4.57;;;;;;;18.94;53.44;99642.53;4487934;31;20109;-75
2022/10/18 14:00:57;;;;;;;99.13;8.57;;;;;;;18.94;52.73;99633.72;4498632;31;20075;-75
2022/10/18 14:03:36;;;;;;;30.88;5.80;;;;;;;18.86;54.07;99631.91;4489030;31;20119;-72
2022/10/18 14:06:27;;;;;;;27.98;5.43;;;;;;;18.91;55.65;99634.91;4491034;31;20932;-72
2022/10/18 14:08:58;;;;;;;34.10;5.10;;;;;;;19.10;54.46;99635.50;4484570;31;20080;-73
2022/10/18 14:11:40;;;;;;;25.20;5.20;;;;;;;18.80;53.88;99633.41;4490460;31;20141;-74
2022/10/18 14:14:36;;;;;;;12.63;4.12;;;;;;;18.69;54.44;99632.94;4483446;31;20168;-73
2022/10/18 14:17:10;;;;;;;8.88;4.05;;;;;;;18.93;54.64;99629.44;4450079;32;20106;-74
2022/10/18 14:19:49;;;;;;;7.12;3.83;;;;;;;19.13;53.33;99637.81;4450535;32;20438;-74
2022/10/18 14:22:25;;;;;;;8.98;3.90;;;;;;;19.24;53.09;99628.66;4437555;32;20164;-74
2022/10/18 14:24:57;;;;;;;10.93;4.30;;;;;;;19.22;53.09;99620.84;4449736;32;20135;-75
2022/10/18 14:27:32;;;;;;;5.72;3.53;;;;;;;19.25;53.30;99620.50;4444946;32;20101;-74
2022/10/18 14:30:16;;;;;;;8.30;4.10;;;;;;;19.21;52.55;99616.53;4441812;32;20580;-75
2022/10/18 14:32:48;;;;;;;7.70;4.00;;;;;;;19.19;53.83;99621.19;4441745;32;20108;-75
2022/10/18 14:35:28;;;;;;;9.32;3.95;;;;;;;19.22;53.83;99615.53;4442557;32;20175;-75
2022/10/18 14:37:59;;;;;;;;;;;;;;;18.87;53.30;99612.34;4446757;32;20156;-75
2022/10/18 14:40:44;;;;;;;7.65;4.10;;;;;;;18.71;54.61;99602.56;4438127;32;20099;-75
2022/10/18 14:43:14;;;;;;;13.60;4.50;;;;;;;18.53;56.64;99600.13;4429584;32;20109;-75
2022/10/18 14:45:41;;;;;;;7.53;3.92;;;;;;;18.47;53.85;99591.97;4447808;32;20926;-75
2022/10/18 14:48:17;;;;;;;7.62;3.95;;;;;;;18.27;54.31;99593.19;4448022;32;20455;-74
2022/10/18 14:50:47;;;;;;;8.90;3.80;;;;;;;18.24;54.27;99595.31;4429269;32;20128;-73
2022/10/18 14:53:17;;;;;;;11.75;4.22;;;;;;;18.05;55.04;99593.84;4443621;31;20109;-73
2022/10/18 14:55:52;;;;;;;19.83;4.43;;;;;;;18.01;54.41;99590.66;4500971;31;20100;-73
2022/10/18 14:58:20;;;;;;;13.75;4.40;;;;;;;18.07;56.10;99589.19;4500106;31;20512;-73
2022/10/18 15:00:47;;;;;;;13.02;5.12;;;;;;;17.92;56.49;99583.72;4501511;31;20123;-72
2022/10/18 15:03:15;;;;;;;14.63;7.10;;;;;;;17.78;57.63;99585.16;4500544;31;20119;-71
2022/10/18 15:06:01;;;;;;;12.23;4.82;;;;;;;17.76;57.47;99584.50;4500287;31;20130;-71
2022/10/18 15:08:35;;;;;;;12.13;5.32;;;;;;;17.55;57.41;99583.13;4487985;31;20104;-71
2022/10/18 15:11:03;;;;;;;12.23;4.75;;;;;;;17.49;57.83;99589.06;4482042;32;20110;-71
2022/10/18 15:13:31;;;;;;;16.20;5.18;;;;;;;17.41;57.43;99583.78;4483171;32;20151;-71
2022/10/18 15:15:58;;;;;;;18.40;5.20;;;;;;;17.34;58.41;99588.03;4483924;31;20160;-71
2022/10/18 15:18:26;;;;;;;19.73;5.72;;;;;;;17.24;58.84;99582.87;4483072;31;20118;-71
2022/10/18 15:21:26;;;;;;;13.77;5.97;;;;;;;17.16;58.94;99575.72;4471010;32;20168;-71
2022/10/18 15:23:56;;;;;;;11.60;5.90;;;;;;;17.05;59.03;99572.53;4465213;32;20105;-71
2022/10/18 15:26:28;;;;;;;18.15;5.75;;;;;;;16.92;58.73;99575.63;4452943;32;20116;-71
2022/10/18 15:28:57;;;;;;;12.55;5.15;;;;;;;16.77;59.35;99564.78;4465739;32;20529;-71
2022/10/18 15:31:33;;;;;;;19.02;5.10;;;;;;;16.62;59.88;99567.16;4452817;32;20108;-71
2022/10/18 15:34:19;;;;;;;13.25;4.93;;;;;;;16.43;60.35;99563.75;4452265;32;20230;-71
2022/10/18 15:36:49;;;;;;;7.03;3.90;;;;;;;16.21;61.84;99553.69;4450474;32;20158;-71
2022/10/18 15:39:20;;;;;;;6.60;4.65;;;;;;;16.04;62.61;99550.09;4458546;32;20472;-71
2022/10/18 15:41:54;;;;;;;9.25;4.32;;;;;;;15.81;64.46;99560.31;4450059;32;20215;-70
2022/10/18 15:44:26;;;;;;;10.30;4.95;;;;;;;15.63;67.58;99562.91;4449102;32;20228;-71
2022/10/18 15:46:56;;;;;;;9.40;4.90;;;;;;;15.42;68.37;99556.91;4448108;32;20100;-71
2022/10/18 15:49:23;;;;;;;18.33;5.68;;;;;;;15.23;69.20;99563.16;4435672;32;20173;-71
2022/10/18 15:52:29;;;;;;;45.88;7.37;;;;;;;15.03;72.28;99553.66;4448327;32;20628;-71
2022/10/18 15:55:21;;;;;;;13.73;5.22;;;;;;;14.76;75.35;99546.56;4450898;32;20510;-71
2022/10/18 15:57:48;;;;;;;20.80;5.90;;;;;;;14.58;75.19;99538.53;4451718;32;20202;-71
2022/10/18 16:00:18;;;;;;;28.67;10.55;;;;;;;14.44;76.16;99542.47;4478061;32;20445;-71
2022/10/18 16:02:46;;;;;;;23.58;9.27;;;;;;;14.24;77.72;99533.78;4485640;31;20088;-71
2022/10/18 16:05:17;;;;;;;24.40;7.87;;;;;;;14.06;78.07;99539.75;4485452;31;20462;-71
2022/10/18 16:07:50;;;;;;;22.70;6.97;;;;;;;13.87;78.91;99539.75;4491572;31;20127;-71
2022/10/18 16:10:17;;;;;;;23.67;6.87;;;;;;;13.75;79.39;99536.47;4500527;31;20088;-71
2022/10/18 16:12:44;;;;;;;15.80;6.82;;;;;;;13.61;80.71;99537.69;4501410;31;20100;-71
2022/10/18 16:15:11;;;;;;;15.00;7.80;;;;;;;13.45;82.66;99536.44;4501506;31;20396;-71
2022/10/18 16:17:39;;;;;;;20.73;6.72;;;;;;;13.34;83.22;99541.81;4501354;31;20146;-71
2022/10/18 16:20:08;;;;;;;19.80;8.02;;;;;;;13.24;85.14;99554.91;4501231;31;20569;-71
2022/10/18 16:22:35;;;;;;;21.00;8.00;;;;;;;13.24;84.69;99554.91;4499943;31;20080;-71
2022/10/18 16:25:03;;;;;;;14.52;7.03;;;;;;;13.11;83.83;99559.56;4501244;31;20541;-71
2022/10/18 16:27:30;;;;;;;21.73;7.53;;;;;;;12.96;85.62;99562.59;4501288;31;20159;-71
2022/10/18 16:29:57;;;;;;;20.42;7.35;;;;;;;12.85;86.75;99565.31;4501119;31;20148;-71
2022/10/18 16:32:25;;;;;;;17.35;7.82;;;;;;;12.73;88.27;99563.72;4501337;31;20122;-71
2022/10/18 16:34:52;;;;;;;17.10;6.85;;;;;;;12.58;89.15;99564.09;4501175;31;20096;-71
2022/10/18 16:37:19;;;;;;;15.38;7.37;;;;;;;12.51;89.48;99562.12;4501198;31;20441;-71
2022/10/18 16:39:46;;;;;;;19.10;7.75;;;;;;;12.42;90.06;99558.47;4501122;31;20426;-71
2022/10/18 16:42:13;;;;;;;39.35;13.68;;;;;;;12.34;90.85;99558.25;4499953;31;20164;-71
2022/10/18 16:44:40;;;;;;;58.50;20.65;;;;;;;12.23;92.04;99554.75;4501127;31;20468;-71
2022/10/18 16:47:10;;;;;;;50.92;19.02;;;;;;;12.17;91.68;99559.69;4500837;31;20127;-71
2022/10/18 16:49:38;;;;;;;46.53;16.42;;;;;;;12.09;91.56;99570.00;4501127;31;20110;-71
2022/10/18 16:52:05;;;;;;;23.80;11.43;;;;;;;12.02;90.90;99562.62;4501078;31;20182;-71
2022/10/18 16:54:33;;;;;;;22.23;12.70;;;;;;;11.99;91.24;99555.00;4500915;31;20116;-71
2022/10/18 16:57:00;;;;;;;23.52;10.20;;;;;;;11.85;92.10;99550.87;4500783;31;20160;-71
2022/10/18 16:59:30;;;;;;;16.25;8.68;;;;;;;11.72;93.28;99555.44;4500800;31;20421;-71
2022/10/18 17:01:57;;;;;;;13.40;6.85;;;;;;;11.64;93.43;99558.69;4501014;31;20131;-71
2022/10/18 17:04:24;;;;;;;12.60;7.00;;;;;;;11.52;94.16;99559.66;4488587;31;20108;-71
2022/10/18 17:06:52;;;;;;;16.52;6.60;;;;;;;11.44;94.51;99555.03;4486480;31;20119;-71
2022/10/18 17:09:20;;;;;;;11.82;7.53;;;;;;;11.38;94.49;99547.66;4500964;31;20099;-71
2022/10/18 17:11:47;;;;;;;11.63;7.28;;;;;;;11.29;96.06;99551.03;4500809;31;20442;-71
2022/10/18 17:14:14;;;;;;;14.05;7.47;;;;;;;11.27;96.97;99550.31;4500882;31;20122;-71
2022/10/18 17:16:41;;;;;;;13.73;7.18;;;;;;;11.26;95.51;99556.50;4501015;31;20119;-71
2022/10/18 17:19:13;;;;;;;11.63;7.55;;;;;;;11.22;95.52;99565.56;4500655;31;20092;-71
2022/10/18 17:21:40;;;;;;;17.58;7.90;;;;;;;11.13;96.51;99561.91;4500850;31;20096;-71
2022/10/18 17:24:08;;;;;;;14.35;6.57;;;;;;;11.09;96.59;99565.72;4500831;31;20127;-71
2022/10/18 17:26:35;;;;;;;10.25;6.65;;;;;;;11.03;97.28;99567.03;4500644;31;20118;-71
2022/10/18 17:29:04;;;;;;;13.23;6.68;;;;;;;10.99;96.78;99574.31;4500863;31;20728;-70
2022/10/18 17:31:32;;;;;;;55.10;18.23;;;;;;;10.95;96.81;99566.81;4500635;31;20709;-71
2022/10/18 17:34:00;;;;;;;34.35;14.20;;;;;;;11.03;96.37;99567.03;4500742;31;20107;-70
2022/10/18 17:36:29;;;;;;;24.05;8.27;;;;;;;10.96;95.89;99563.22;4500602;31;20438;-70
2022/10/18 17:38:57;;;;;;;27.05;9.45;;;;;;;10.93;95.72;99552.97;4500578;31;20088;-70
2022/10/18 17:41:25;;;;;;;20.00;8.57;;;;;;;10.74;96.76;99548.34;4500505;31;20116;-71
2022/10/18 17:43:52;;;;;;;26.02;11.65;;;;;;;10.61;98.18;99548.44;4500643;31;20120;-70
2022/10/18 17:46:19;;;;;;;16.20;8.85;;;;;;;10.55;98.34;99546.28;4500595;31;20115;-70
2022/10/18 17:48:46;;;;;;;15.30;7.62;;;;;;;10.56;98.01;99543.56;4500605;31;20167;-71
2022/10/18 17:51:15;;;;;;;15.18;7.85;;;;;;;10.56;97.78;99542.72;4500600;31;20092;-71
2022/10/18 17:53:43;;;;;;;16.58;7.50;;;;;;;10.53;98.27;99545.59;4500151;31;20501;-71
2022/10/18 17:56:11;;;;;;;10.38;6.45;;;;;;;10.45;99.84;99538.31;4500337;31;20175;-70
2022/10/18 17:58:38;;;;;;;13.85;6.57;;;;;;;10.40;100.00;99540.44;4500505;31;20500;-71
2022/10/18 18:01:17;;;;;;;8.90;5.90;;;;;;;10.35;99.76;99537.34;4500339;31;20112;-70
2022/10/18 18:03:46;;;;;;;14.48;5.87;;;;;;;10.32;100.00;99537.53;4492249;31;20173;-70
2022/10/18 18:06:19;;;;;;;10.38;5.35;;;;;;;10.32;98.97;99548.84;4484553;31;20088;-70